Terminal Aerodrome Forecast
Issued by NWS Tampa Bay Area, FL

Home | Current Version | Previous Version | Text Only | Print | Product List | Glossary On
Versions: 1 2 3 4 5 6 7 8 9 10 11 12 13 14 15 16 17 18 19 20 21 22 23 24 25 26 27 28 29 30 31
000
FTUS42 KTBW 070000 AAA
TAFTPA
TAF AMD
KTPA 070049Z 0701/0724 02011KT P6SM -DZ BKN008 OVC015
      TEMPO 0701/0703 SCT008 BKN015 OVC030
     FM070300 03012KT P6SM FEW007 SCT015 OVC025
     FM071500 04011KT P6SM OVC025
     FM071800 04010KT P6SM SCT030 BKN050=

USA.gov is the U.S. government's official web portal to all federal, state and local government web resources and services.